Home > Products > Valid Products > TAF

000
FTUS42 KTAE 231400 AAA
TAFTLH
TAF AMD
KTLH 231404Z 2314/2412 15012G18KT 3SM -RA BR OVC004
     FM232100 18012G20KT 4SM TSRA BKN030CB BKN100
      TEMPO 2321/2324 VRB20G30KT 2SM +TSRA BKN025CB
     FM240300 19010KT P6SM VCSH OVC003=



000
FTUS42 KTAE 231100
TAFVLD
TAF
KVLD 231133Z 2312/2412 VRB03KT P6SM -RA BKN004 BKN008 OVC015
     FM231500 17012G18KT P6SM VCSH BKN007
     FM232100 18012G18KT P6SM VCTS BKN015CB BKN100
      TEMPO 2400/2403 VRB15G25KT 2SM +TSRA BKN007 OVC015CB
     FM240400 19009KT 3SM RA BR OVC003=



000
FTUS42 KTAE 231100
TAFTLH
TAF
KTLH 231133Z 2312/2412 14011G18KT 5SM RA BR OVC008
     FM232100 18012G20KT 4SM TSRA BKN030CB BKN100
      TEMPO 2321/2324 VRB20G30KT 2SM +TSRA BKN025CB
     FM240300 19010KT P6SM VCSH OVC003=



000
FTUS42 KTAE 231100
TAFABY
TAF
KABY 231133Z 2312/2412 09006KT P6SM -RA OVC006
     FM231600 16011G15KT 5SM RA BKN006 BKN015
     FM231800 18012G20KT P6SM VCTS BKN015CB BKN030
      TEMPO 2320/2323 VRB20G30KT 2SM +TSRA
     FM240100 20011KT P6SM OVC002=



000
FTUS42 KTAE 231100
TAFDHN
TAF
KDHN 231133Z 2312/2412 10008KT 4SM -RA BR OVC005
     FM231500 16010G15KT 6SM -RA OVC007
     FM231800 18013G23KT 4SM TSRA BKN025CB
      TEMPO 2318/2321 VRB20G30KT 2SM +TSRA
     FM240000 20011KT P6SM OVC007=



000
FTUS42 KTAE 230500
TAFVLD
TAF
KVLD 230537Z 2306/2406 10007KT 3SM RA BR SCT007 OVC015
     FM231500 17012G18KT P6SM VCSH BKN007
     FM232100 18012G18KT P6SM VCTS BKN015CB BKN100
      TEMPO 2400/2402 VRB15G25KT 2SM +TSRA BKN007 OVC015CB
     FM240400 19009KT 3SM RA BR OVC003=



000
FTUS42 KTAE 230500
TAFDHN
TAF
KDHN 230537Z 2306/2406 11006KT 6SM -RA OVC005
     FM231500 19012G20KT P6SM VCTS BKN015CB BKN030
     FM231800 18015G25KT 4SM TSRA BKN025CB
      TEMPO 2318/2321 VRB20G30KT 2SM +TSRA
     FM240000 20011KT P6SM OVC007=



000
FTUS42 KTAE 230500
TAFABY
TAF
KABY 230537Z 2306/2406 08008KT 3SM RA BR BKN012 OVC022
     FM231600 17011G15KT 5SM RA SCT015 BKN030
     FM231800 18012G20KT P6SM VCTS BKN015CB BKN030
      TEMPO 2320/2323 VRB20G30KT 2SM +TSRA
     FM240100 20011KT 4SM -RA BR OVC004=



000
FTUS42 KTAE 230500
TAFTLH
TAF
KTLH 230537Z 2306/2406 10004KT 3SM RA OVC008
     FM231400 17014G20KT P6SM VCTS SCT035CB BKN100
     FM232000 19012G18KT 4SM TSRA BKN030CB BKN100
      TEMPO 2320/2322 VRB20G30KT 2SM +TSRA BKN025CB
     FM240300 19010KT 3SM BR OVC003=



000
FTUS42 KTAE 222300 RRA
TAFDHN
TAF
KDHN 222347Z 2300/2324 10010KT P6SM FEW008 OVC025
     FM230300 10010KT 3SM RA BR OVC007
     FM231700 19017G26KT P6SM VCTS BKN015CB BKN030=



000
FTUS42 KTAE 222300 RRA
TAFABY
TAF
KABY 222347Z 2300/2324 09009KT 4SM RA BR OVC025
     FM231600 20015G25KT P6SM SCT015 BKN030
     FM232100 21012G20KT P6SM VCTS BKN015CB BKN030=



000
FTUS42 KTAE 222300 RRA
TAFVLD
TAF
KVLD 222347Z 2300/2324 07007KT 3SM RA BR OVC008
     FM231500 19012G18KT P6SM SCT035 BKN100
     FM232100 19012G18KT P6SM VCTS BKN035CB BKN100=



000
FTUS42 KTAE 222300 RRA
TAFTLH
TAF
KTLH 222347Z 2300/2324 08010KT 5SM RA BR BKN010 OVC040
     FM231400 17014G20KT P6SM SCT035 BKN100
     FM232000 19012G18KT P6SM VCTS SCT035CB BKN100=



000
FTUS42 KTAE 222200 AAA
TAFDHN
TAF AMD
KDHN 222204Z 2222/2318 09010KT 5SM -RA BR BKN028 OVC050
     FM230000 10010KT P6SM -RA OVC025
     FM230300 10010KT 3SM RA BR OVC007
     FM230700 10012KT 2SM -TSRA BR OVC006CB=



000
FTUS42 KTAE 222200 AAA
TAFDHN
TAF AMD
KDHN 222204Z 2222/2318 09010KT 5SM -RA BR BKN028 OVC050
     FM230000 10010KT P6SM -RA OVC025
     FM230300 10010KT 3SM RA BR OVC007
     FM230700 10012KT 2SM -TSRA BR OVC006CB=



000
FTUS42 KTAE 222200 AAB
TAFTLH
TAF AMD
KTLH 222203Z 2222/2318 07008KT 5SM -RA BR BKN014 OVC040
     FM230000 08010KT 2SM RA BR OVC007
     FM231200 14012KT 3SM BR OVC008=



000
FTUS42 KTAE 222200 AAB
TAFTLH
TAF AMD
KTLH 222203Z 2222/2318 07008KT 5SM -RA BR BKN014 OVC040
     FM230000 08010KT 2SM RA BR OVC007
     FM231200 14012KT 3SM BR OVC008=



000
FTUS42 KTAE 221800 AAA
TAFTLH
TAF AMD
KTLH 221801Z 2218/2318 07011G15KT 3SM -RA BR BKN030 OVC050
     FM230000 08010KT 2SM RA BR OVC007
     FM231200 14012KT 3SM BR OVC008=



000
FTUS42 KTAE 221700
TAFDHN
TAF
KDHN 221720Z 2218/2318 08010KT P6SM BKN040 OVC050
     FM230000 10010KT P6SM -RA OVC025
     FM230300 10010KT 3SM RA BR OVC007
     FM230700 10012KT 2SM -TSRA BR OVC006CB=



000
FTUS42 KTAE 221700
TAFTLH
TAF
KTLH 221720Z 2218/2318 07011G15KT P6SM -RA BKN030 OVC050
     FM230000 08010KT 3SM RA BR OVC007
     FM231200 14012KT 4SM BR OVC008=



000
FTUS42 KTAE 221700
TAFABY
TAF
KABY 221720Z 2218/2318 08010KT P6SM BKN040 OVC050
     FM230000 10010KT P6SM -RA OVC025
     FM230300 10010KT 3SM RA BR OVC007
     FM230700 10012KT 2SM TSRA BR OVC006CB=



000
FTUS42 KTAE 221700
TAFVLD
TAF
KVLD 221720Z 2218/2318 09010G15KT P6SM -RA BKN040 OVC060
     FM230000 09010KT 3SM RA BR OVC007
     FM230700 10012KT 2SM TSRA BR OVC006CB
     FM231500 15010KT 3SM BR OVC006=



000
FTUS42 KTAE 221500 AAA
TAFTLH
TAF AMD
KTLH 221535Z 2216/2312 10010G15KT P6SM BKN050 BKN250
     FM222100 08010KT P6SM VCSH BKN025 BKN250
     FM230000 08010KT 3SM RA BR OVC007=



000
FTUS42 KTAE 221100
TAFABY
TAF
KABY 221120Z 2212/2312 05006KT P6SM FEW050
     FM221600 09010G15KT P6SM BKN050 BKN250
     FM230000 09010KT P6SM OVC025
     FM230500 09008KT 3SM RA BR OVC007=



000
FTUS42 KTAE 221100
TAFVLD
TAF
KVLD 221120Z 2212/2312 05007KT P6SM SKC
     FM221500 09010G15KT P6SM SCT040 BKN100
     FM222100 09010KT P6SM VCSH BKN025 BKN100
     FM230000 09010KT 3SM RA BR OVC007=



000
FTUS42 KTAE 221100
TAFTLH
TAF
KTLH 221120Z 2212/2312 07005KT P6SM FEW040
     FM221500 10010G15KT P6SM BKN050 BKN250
     FM222100 08010KT P6SM VCSH BKN025 BKN250
     FM230000 08010KT 3SM RA BR OVC007=



000
FTUS42 KTAE 221100
TAFDHN
TAF
KDHN 221120Z 2212/2312 06007KT P6SM SCT050
     FM221500 08010G15KT P6SM SCT050 BKN100
     FM221900 09011KT P6SM BKN050 BKN100
     FM230000 10010KT P6SM VCSH OVC025
     FM230300 10010KT 3SM RA BR OVC007=



000
FTUS42 KTAE 220500
TAFDHN
TAF
KDHN 220530Z 2206/2306 07005KT P6SM SKC
     FM221500 08010G15KT P6SM BKN100 BKN250
     FM221900 09011KT P6SM BKN050 BKN100
     FM230000 10010KT P6SM VCSH OVC025
     FM230300 10010KT 3SM RA BR OVC007=



000
FTUS42 KTAE 220500
TAFVLD
TAF
KVLD 220530Z 2206/2306 06003KT P6SM SKC
     FM221500 09010G15KT P6SM SCT040 BKN100 BKN250
     FM222100 09010KT P6SM VCSH BKN025 BKN100
     FM230000 09010KT 3SM RA BR OVC007=



000
FTUS42 KTAE 220500
TAFABY
TAF
KABY 220530Z 2206/2306 00000KT P6SM SKC
     FM221600 09010G15KT P6SM BKN050 BKN250
     FM230000 09010KT P6SM OVC025
     FM230500 09008KT 3SM RA BR OVC007=



000
FTUS42 KTAE 220500
TAFTLH
TAF
KTLH 220530Z 2206/2306 00000KT P6SM SKC
     FM221500 10010G15KT P6SM BKN050 BKN250
     FM222100 08010KT P6SM VCSH BKN025 BKN250
     FM230000 08010KT 3SM RA BR OVC007=



000
FTUS42 KTAE 212300
TAFVLD
TAF
KVLD 212320Z 2200/2224 09003KT P6SM SKC
     FM221400 09010G15KT P6SM SCT040 BKN100 BKN250
     FM222100 09010KT P6SM VCSH BKN035 BKN100=



000
FTUS42 KTAE 212300
TAFABY
TAF
KABY 212320Z 2200/2224 05003KT P6SM SKC
     FM221600 09010G15KT P6SM BKN050 BKN250=



000
FTUS42 KTAE 212300
TAFTLH
TAF
KTLH 212320Z 2200/2224 07007KT P6SM FEW250
     FM220900 08003KT P6SM BKN080 BKN250
     FM221500 10010G15KT P6SM BKN050 BKN250
     FM222100 08010KT P6SM VCSH BKN035 BKN250=



000
FTUS42 KTAE 212300
TAFDHN
TAF
KDHN 212320Z 2200/2224 06005KT P6SM SKC
     FM221500 09011G17KT P6SM BKN100 BKN250
     FM221900 10011KT P6SM BKN050 BKN100=



000
FTUS42 KTAE 211700
TAFDHN
TAF
KDHN 211720Z 2118/2218 06006KT P6SM SKC
     FM221500 09011G17KT P6SM BKN100 BKN250=



000
FTUS42 KTAE 211700
TAFABY
TAF
KABY 211720Z 2118/2218 05007KT P6SM SKC
     FM220300 08003KT P6SM SKC
     FM221600 09010G15KT P6SM BKN100 BKN250=



000
FTUS42 KTAE 211700
TAFTLH
TAF
KTLH 211720Z 2118/2218 09010KT P6SM SKC
     FM220300 08003KT P6SM SKC
     FM221500 10010G15KT P6SM SCT050 SCT100 BKN250=



000
FTUS42 KTAE 211700
TAFVLD
TAF
KVLD 211720Z 2118/2218 03011KT P6SM SKC
     FM220100 08003KT P6SM SKC
     FM221500 09010G15KT P6SM SCT040 SCT100 BKN250=



000
FTUS42 KTAE 211200 AAA
TAFVLD
TAF AMD
KVLD 211207Z 2112/2212 00000KT 6SM BR SKC
      TEMPO 2112/2113 4SM BR
     FM211400 06008KT P6SM FEW250=



000
FTUS42 KTAE 211100
TAFDHN
TAF
KDHN 211120Z 2112/2212 00000KT P6SM SKC
     FM211400 07007KT P6SM FEW250=



000
FTUS42 KTAE 211100
TAFABY
TAF
KABY 211120Z 2112/2212 00000KT P6SM SKC
     FM211400 07007KT P6SM FEW250=



000
FTUS42 KTAE 211100
TAFVLD
TAF
KVLD 211120Z 2112/2212 00000KT 6SM BR SKC
     FM211400 06008KT P6SM FEW250=



000
FTUS42 KTAE 211100
TAFTLH
TAF
KTLH 211120Z 2112/2212 00000KT P6SM SKC
     FM211400 06007KT P6SM FEW250=



000
FTUS42 KTAE 210500
TAFTLH
TAF
KTLH 210520Z 2106/2206 00000KT P6SM SKC
     FM211400 06007KT P6SM FEW250=



000
FTUS42 KTAE 210500
TAFVLD
TAF
KVLD 210520Z 2106/2206 00000KT P6SM SKC
     FM211400 06008KT P6SM FEW250=



000
FTUS42 KTAE 210500
TAFDHN
TAF
KDHN 210520Z 2106/2206 00000KT P6SM SKC
     FM211400 07007KT P6SM FEW250=



000
FTUS42 KTAE 210500
TAFABY
TAF
KABY 210520Z 2106/2206 00000KT P6SM SKC
     FM211400 07007KT P6SM FEW250=



000
FTUS42 KTAE 202300
TAFABY
TAF
KABY 202331Z 2100/2124 00000KT P6SM FEW250
     FM211400 07007KT P6SM FEW250=



000
FTUS42 KTAE 202300
TAFVLD
TAF
KVLD 202331Z 2100/2124 00000KT P6SM FEW250
     FM211400 06008KT P6SM FEW250=



000
FTUS42 KTAE 202300
TAFDHN
TAF
KDHN 202331Z 2100/2124 00000KT P6SM FEW250
     FM211400 07007KT P6SM FEW250=



000
FTUS42 KTAE 202300
TAFTLH
TAF
KTLH 202331Z 2100/2124 00000KT P6SM FEW250
     FM211400 06007KT P6SM FEW250=



000
FTUS42 KTAE 201700
TAFABY
TAF
KABY 201720Z 2018/2118 26005KT P6SM FEW250
     FM210000 00000KT P6SM FEW250
     FM211400 05005KT P6SM FEW250=



000
FTUS42 KTAE 201700
TAFTLH
TAF
KTLH 201720Z 2018/2118 02005KT P6SM FEW250
     FM210000 00000KT P6SM FEW250
     FM211400 05005KT P6SM FEW250=



000
FTUS42 KTAE 201700
TAFDHN
TAF
KDHN 201720Z 2018/2118 28005KT P6SM FEW250
     FM210000 00000KT P6SM FEW250
     FM211400 07007KT P6SM FEW250=



000
FTUS42 KTAE 201700
TAFVLD
TAF
KVLD 201720Z 2018/2118 02003KT P6SM FEW250
     FM210000 00000KT P6SM FEW250
     FM211400 04005KT P6SM FEW250=



    US Dept of Commerce
    National Oceanic and Atmospheric Administration
    National Weather Service
    1325 East West Highway
    Silver Spring, MD 20910
    Page Author: NWS Internet Services Team
Disclaimer
Information Quality
Credits
Glossary
Privacy Policy
Freedom of Information Act (FOIA)
About Us
Career Opportunities